createdAt,value
2019-03-24T00:00:00.591Z,5.20
2019-03-24T00:04:05.477Z,5.10
2019-03-24T00:08:10.231Z,5.10
2019-03-24T00:12:15.018Z,5.00
2019-03-24T00:16:20.709Z,5.00
2019-03-24T00:20:25.552Z,4.90
2019-03-24T00:24:30.462Z,4.80
2019-03-24T00:28:35.215Z,4.80
2019-03-24T00:32:40.000Z,4.70
2019-03-24T00:36:44.878Z,4.70
2019-03-24T00:40:52.395Z,4.70
2019-03-24T00:44:57.287Z,4.60
2019-03-24T00:49:02.039Z,4.60
2019-03-24T00:53:06.824Z,4.50
2019-03-24T00:57:11.593Z,4.50
2019-03-24T01:01:16.447Z,4.50
2019-03-24T01:05:21.195Z,4.50
2019-03-24T01:09:25.956Z,4.40
2019-03-24T01:13:30.689Z,4.40
2019-03-24T01:17:35.469Z,4.40
2019-03-24T01:21:40.330Z,4.30
2019-03-24T01:25:45.083Z,4.30
2019-03-24T01:29:49.835Z,4.30
2019-03-24T01:33:54.578Z,4.20
2019-03-24T01:37:59.351Z,4.10
2019-03-24T01:42:04.235Z,4.10
2019-03-24T01:46:09.008Z,4.10
2019-03-24T01:50:13.891Z,4.10
2019-03-24T01:54:18.712Z,4.00
2019-03-24T01:58:23.488Z,3.90
2019-03-24T02:06:32.227Z,3.80
2019-03-24T02:10:37.159Z,3.70
2019-03-24T02:14:41.890Z,3.60
2019-03-24T02:18:46.671Z,3.50
2019-03-24T02:22:51.446Z,3.50
2019-03-24T02:26:56.245Z,3.40
2019-03-24T02:31:02.771Z,3.30
2019-03-24T02:35:07.674Z,3.30
2019-03-24T02:39:12.515Z,3.20
2019-03-24T02:43:17.254Z,3.20
2019-03-24T02:47:22.003Z,3.10
2019-03-24T02:51:26.764Z,3.10
2019-03-24T02:55:31.522Z,3.10
2019-03-24T02:59:36.319Z,3.10
2019-03-24T03:03:41.137Z,3.10
2019-03-24T03:07:45.901Z,3.10
2019-03-24T03:11:50.636Z,3.00
2019-03-24T03:15:55.402Z,3.00
2019-03-24T03:20:00.370Z,3.00
2019-03-24T03:24:05.180Z,3.00
2019-03-24T03:28:09.931Z,3.00
2019-03-24T03:32:14.672Z,3.00
2019-03-24T03:36:19.416Z,3.00
2019-03-24T03:40:24.193Z,3.00
2019-03-24T03:44:28.931Z,3.00
2019-03-24T03:48:33.686Z,3.10
2019-03-24T03:52:38.445Z,3.10
2019-03-24T03:56:43.198Z,3.10
2019-03-24T04:00:47.981Z,3.10
2019-03-24T04:04:52.729Z,3.20
2019-03-24T04:08:57.462Z,3.20
2019-03-24T04:13:02.220Z,3.20
2019-03-24T04:17:08.109Z,3.20
2019-03-24T04:21:13.057Z,3.30
2019-03-24T04:25:17.792Z,3.30
2019-03-24T04:29:22.543Z,3.40
2019-03-24T04:33:27.308Z,3.40
2019-03-24T04:37:33.197Z,3.50
2019-03-24T04:41:38.120Z,3.50
2019-03-24T04:45:42.831Z,3.60
2019-03-24T04:49:47.607Z,3.60
2019-03-24T04:53:52.316Z,3.60
2019-03-24T04:57:57.055Z,3.70
2019-03-24T05:02:01.854Z,3.70
2019-03-24T05:06:06.903Z,3.80
2019-03-24T05:10:24.344Z,3.80
2019-03-24T05:14:29.090Z,3.80
2019-03-24T05:18:33.850Z,3.80
2019-03-24T05:22:38.668Z,3.90
2019-03-24T05:26:43.362Z,3.90
2019-03-24T05:30:49.295Z,4.00
2019-03-24T05:34:54.031Z,4.10
2019-03-24T05:38:58.786Z,4.10
2019-03-24T05:43:03.539Z,4.20
2019-03-24T05:47:08.294Z,4.30
2019-03-24T05:51:13.058Z,4.40
2019-03-24T05:55:17.786Z,4.50
2019-03-24T05:59:22.567Z,4.50
2019-03-24T06:03:27.331Z,4.60
2019-03-24T06:07:32.102Z,4.70
2019-03-24T06:11:36.874Z,4.70
2019-03-24T06:15:41.599Z,4.80
2019-03-24T06:19:46.367Z,4.90
2019-03-24T06:23:51.147Z,5.00
2019-03-24T06:27:55.989Z,5.10
2019-03-24T06:32:00.744Z,5.10
2019-03-24T06:36:05.480Z,5.20
2019-03-24T06:40:10.570Z,5.20
2019-03-24T06:44:15.408Z,5.30
2019-03-24T06:48:20.189Z,5.30
2019-03-24T06:52:25.156Z,5.40
2019-03-24T06:56:29.939Z,5.40
2019-03-24T07:00:34.712Z,5.50
2019-03-24T07:04:39.586Z,5.50
2019-03-24T07:08:44.426Z,5.60
2019-03-24T07:12:51.357Z,5.70
2019-03-24T07:16:55.599Z,5.80
2019-03-24T07:21:01.560Z,5.90
2019-03-24T07:25:06.394Z,6.00
2019-03-24T07:29:11.268Z,6.10
2019-03-24T07:33:16.082Z,6.30
2019-03-24T07:37:21.111Z,6.30
2019-03-24T07:41:25.857Z,6.40
2019-03-24T07:45:30.707Z,6.40
2019-03-24T07:49:35.487Z,6.60
2019-03-24T07:53:40.267Z,6.70
2019-03-24T07:57:45.263Z,6.80
2019-03-24T08:01:50.105Z,7.00
2019-03-24T08:05:55.008Z,7.10
2019-03-24T08:09:59.759Z,7.40
2019-03-24T08:14:04.733Z,7.70
2019-03-24T08:18:10.913Z,8.00
2019-03-24T08:22:15.763Z,8.30
2019-03-24T08:26:20.510Z,8.60
2019-03-24T08:30:38.392Z,8.80
2019-03-24T08:34:43.143Z,8.90
2019-03-24T08:38:47.914Z,9.10
2019-03-24T08:42:55.743Z,9.30
2019-03-24T08:47:00.556Z,9.50
2019-03-24T08:51:06.282Z,9.60
2019-03-24T08:55:11.038Z,9.80
2019-03-24T08:59:15.834Z,9.90
2019-03-24T09:03:23.767Z,10.10
2019-03-24T09:07:28.532Z,10.30
2019-03-24T09:11:33.441Z,10.50
2019-03-24T09:15:38.637Z,10.50
2019-03-24T09:19:45.671Z,10.60
2019-03-24T09:23:50.501Z,10.60
2019-03-24T09:27:55.246Z,10.60
2019-03-24T09:32:00.320Z,10.70
2019-03-24T09:36:05.132Z,10.80
2019-03-24T09:40:13.271Z,10.90
2019-03-24T09:44:18.030Z,11.10
2019-03-24T09:48:23.705Z,11.40
2019-03-24T09:52:28.467Z,11.70
2019-03-24T09:56:33.295Z,11.90
2019-03-24T10:00:38.084Z,12.10
2019-03-24T10:04:43.055Z,12.20
2019-03-24T10:08:47.835Z,12.30
2019-03-24T10:12:52.752Z,12.40
2019-03-24T10:16:57.511Z,12.60
2019-03-24T10:21:02.327Z,12.70
2019-03-24T10:25:07.570Z,12.90
2019-03-24T10:29:12.324Z,13.00
2019-03-24T10:33:17.099Z,13.10
2019-03-24T10:37:21.860Z,13.30
2019-03-24T10:45:30.716Z,13.50
2019-03-24T10:49:35.561Z,13.50
2019-03-24T10:53:40.319Z,13.50
2019-03-24T10:57:45.084Z,13.60
2019-03-24T11:01:49.921Z,13.60
2019-03-24T11:05:54.694Z,13.70
2019-03-24T11:09:59.472Z,13.70
2019-03-24T11:14:04.271Z,13.70
2019-03-24T11:18:09.047Z,13.70
2019-03-24T11:22:13.827Z,13.70
2019-03-24T11:26:18.590Z,13.70
2019-03-24T11:30:23.355Z,13.60
2019-03-24T11:34:28.124Z,13.50
2019-03-24T11:38:33.752Z,13.50
2019-03-24T11:42:39.438Z,13.40
2019-03-24T11:46:44.984Z,13.20
2019-03-24T11:50:49.764Z,13.10
2019-03-24T11:54:54.559Z,12.90
2019-03-24T11:58:59.345Z,12.90
2019-03-24T12:03:05.764Z,12.80
2019-03-24T12:07:10.927Z,12.90
2019-03-24T12:11:15.747Z,12.90
2019-03-24T12:15:20.551Z,13.10
2019-03-24T12:19:25.320Z,13.20
2019-03-24T12:23:30.083Z,13.30
2019-03-24T12:27:36.249Z,13.40
2019-03-24T12:31:41.893Z,13.40
2019-03-24T12:35:47.106Z,13.50
2019-03-24T12:39:53.529Z,13.40
2019-03-24T12:43:58.932Z,13.40
2019-03-24T12:48:04.614Z,13.20
2019-03-24T12:52:10.023Z,13.10
2019-03-24T12:56:15.130Z,13.00
2019-03-24T13:00:33.151Z,12.80
2019-03-24T13:04:37.976Z,12.70
2019-03-24T13:08:42.727Z,12.60
2019-03-24T13:12:47.594Z,12.50
2019-03-24T13:16:52.363Z,12.50
2019-03-24T13:25:01.062Z,12.40
2019-03-24T13:29:05.857Z,12.40
2019-03-24T13:33:10.580Z,12.40
2019-03-24T13:37:15.350Z,12.40
2019-03-24T13:41:20.240Z,12.40
2019-03-24T13:45:25.011Z,12.40
2019-03-24T13:49:29.759Z,12.40
2019-03-24T13:53:34.538Z,12.50
2019-03-24T13:57:39.312Z,12.40
2019-03-24T14:01:44.119Z,12.30
2019-03-24T14:05:49.735Z,12.30
2019-03-24T14:09:54.462Z,12.20
2019-03-24T14:13:59.340Z,12.10
2019-03-24T14:18:04.519Z,12.00
2019-03-24T14:22:10.311Z,12.00
2019-03-24T14:26:15.014Z,12.00
2019-03-24T14:30:27.151Z,12.00
2019-03-24T14:34:32.363Z,12.00
2019-03-24T14:38:37.162Z,12.10
2019-03-24T14:42:42.147Z,12.20
2019-03-24T14:46:46.915Z,12.30
2019-03-24T14:50:54.822Z,12.30
2019-03-24T14:54:58.112Z,12.30
2019-03-24T14:59:02.913Z,12.30
2019-03-24T15:03:07.735Z,12.30
2019-03-24T15:07:12.913Z,12.40
2019-03-24T15:11:17.639Z,12.60
2019-03-24T15:15:22.371Z,12.70
2019-03-24T15:19:27.135Z,12.80
2019-03-24T15:23:31.934Z,13.00
2019-03-24T15:27:36.687Z,13.20
2019-03-24T15:31:42.103Z,13.40
2019-03-24T15:35:47.340Z,13.70
2019-03-24T15:39:53.238Z,14.20
2019-03-24T15:43:58.775Z,14.70
2019-03-24T15:48:04.748Z,15.50
2019-03-24T15:52:11.118Z,15.90
2019-03-24T16:00:42.247Z,17.00
2019-03-24T16:04:46.994Z,17.50
2019-03-24T16:08:51.768Z,17.90
2019-03-24T16:12:56.687Z,18.20
2019-03-24T16:17:01.467Z,18.40
2019-03-24T16:21:06.194Z,18.50
2019-03-24T16:25:11.036Z,18.50
2019-03-24T16:29:15.791Z,18.60
2019-03-24T16:33:20.566Z,18.40
2019-03-24T16:37:25.348Z,18.20
2019-03-24T16:41:30.098Z,17.80
2019-03-24T16:45:35.083Z,17.30
2019-03-24T16:49:39.899Z,16.70
2019-03-24T16:53:45.621Z,16.20
2019-03-24T16:57:50.414Z,15.60
2019-03-24T17:01:55.209Z,15.20
2019-03-24T17:06:00.043Z,14.80
2019-03-24T17:10:04.965Z,14.40
2019-03-24T17:14:09.728Z,14.10
2019-03-24T17:18:14.597Z,13.80
2019-03-24T17:22:20.602Z,13.50
2019-03-24T17:26:26.143Z,13.20
2019-03-24T17:30:30.947Z,12.90
2019-03-24T17:34:35.702Z,12.70
2019-03-24T17:38:40.462Z,12.40
2019-03-24T17:42:45.199Z,12.20
2019-03-24T17:46:49.969Z,12.00
2019-03-24T17:50:54.785Z,11.80
2019-03-24T17:55:00.452Z,11.60
2019-03-24T17:59:05.267Z,11.50
2019-03-24T18:03:10.021Z,11.30
2019-03-24T18:07:14.786Z,11.20
2019-03-24T18:11:19.544Z,11.10
2019-03-24T18:15:24.336Z,10.90
2019-03-24T18:19:29.100Z,10.70
2019-03-24T18:23:33.869Z,10.60
2019-03-24T18:27:38.610Z,10.50
2019-03-24T18:31:43.375Z,10.30
2019-03-24T18:35:48.148Z,10.20
2019-03-24T18:39:52.908Z,10.10
2019-03-24T18:43:57.686Z,10.00
2019-03-24T18:48:02.509Z,9.90
2019-03-24T18:52:07.244Z,9.80
2019-03-24T18:56:12.281Z,9.80
2019-03-24T19:00:17.911Z,9.70
2019-03-24T19:04:22.771Z,9.70
2019-03-24T19:08:27.519Z,9.70
2019-03-24T19:12:32.388Z,9.60
2019-03-24T19:16:37.641Z,9.60
2019-03-24T19:20:42.729Z,9.50
2019-03-24T19:24:47.526Z,9.40
2019-03-24T19:28:52.283Z,9.40
2019-03-24T19:32:57.019Z,9.30
2019-03-24T19:37:02.985Z,9.20
2019-03-24T19:41:09.949Z,9.20
2019-03-24T19:45:14.703Z,9.10
2019-03-24T19:49:19.463Z,9.10
2019-03-24T19:53:24.222Z,9.00
2019-03-24T19:57:29.101Z,8.90
2019-03-24T20:01:33.976Z,8.90
2019-03-24T20:05:38.759Z,8.80
2019-03-24T20:09:43.649Z,8.70
2019-03-24T20:13:48.542Z,8.70
2019-03-24T20:17:53.323Z,8.70
2019-03-24T20:21:58.083Z,8.60
2019-03-24T20:26:02.851Z,8.60
2019-03-24T20:30:08.319Z,8.60
2019-03-24T20:34:13.088Z,8.50
2019-03-24T20:38:17.848Z,8.50
2019-03-24T20:42:22.630Z,8.40
2019-03-24T20:46:28.982Z,8.30
2019-03-24T20:50:35.316Z,8.30
2019-03-24T20:54:41.233Z,8.20
2019-03-24T20:58:47.327Z,8.10
2019-03-24T21:02:52.905Z,8.10
2019-03-24T21:06:57.751Z,8.00
2019-03-24T21:11:03.032Z,7.90
2019-03-24T21:15:11.569Z,7.90
2019-03-24T21:19:17.278Z,7.80
2019-03-24T21:23:29.499Z,7.70
2019-03-24T21:27:30.292Z,7.60
2019-03-24T21:31:37.087Z,7.50
2019-03-24T21:35:42.603Z,7.40
2019-03-24T21:39:48.844Z,7.40
2019-03-24T21:43:54.297Z,7.30
2019-03-24T21:48:00.043Z,7.30
2019-03-24T21:52:05.276Z,7.20
2019-03-24T21:56:10.186Z,7.20
2019-03-24T22:00:16.909Z,7.20
2019-03-24T22:04:22.899Z,7.20
2019-03-24T22:08:28.313Z,7.20
2019-03-24T22:12:33.143Z,7.20
2019-03-24T22:16:38.251Z,7.30
2019-03-24T22:20:48.808Z,7.30
2019-03-24T22:24:50.051Z,7.30
2019-03-24T22:28:55.214Z,7.30
2019-03-24T22:33:00.324Z,7.30
2019-03-24T22:37:15.381Z,7.30
2019-03-24T22:41:11.971Z,7.20
2019-03-24T22:45:19.848Z,7.10
2019-03-24T22:49:24.660Z,7.00
2019-03-24T22:53:29.821Z,6.90
2019-03-24T22:57:34.991Z,6.80
2019-03-24T23:01:46.806Z,6.80
2019-03-24T23:05:53.418Z,6.70
2019-03-24T23:09:59.714Z,6.60
2019-03-24T23:14:07.228Z,6.50
2019-03-24T23:18:13.329Z,6.50
2019-03-24T23:22:18.096Z,6.40
2019-03-24T23:26:22.876Z,6.40
2019-03-24T23:30:27.676Z,6.30
2019-03-24T23:34:32.446Z,6.20
2019-03-24T23:38:38.032Z,6.10
2019-03-24T23:42:42.818Z,6.10
2019-03-24T23:46:47.555Z,6.00
2019-03-24T23:50:53.344Z,5.90
2019-03-24T23:54:58.130Z,5.90
2019-03-24T23:59:02.920Z,5.80
